Time;durP1;ratioP1;P1;durP2;ratioP2;P2;SDS_P1;SDS_P2;PMS_P1;PMS_P2;Temp;Humidity;BMP_temperature;BMP_pressure;BME280_temperature;BME280_humidity;BME280_pressure;Samples;Min_cycle;Max_cycle;Signal;HPM_P1;HPM_P2
2021/09/18 00:00:20;;;;;;;19.25;11.18;;;;;;;18.03;87.30;96455.06;4963265;28;20057;-68
2021/09/18 00:02:47;;;;;;;17.33;10.65;;;;;;;18.24;87.01;96482.63;4961765;28;20059;-68
2021/09/18 00:05:14;;;;;;;30.65;10.98;;;;;;;18.52;86.82;96504.47;4962213;28;20051;-68
2021/09/18 00:07:41;;;;;;;22.50;11.35;;;;;;;18.17;85.80;96429.53;4961546;28;20054;-68
2021/09/18 00:10:08;;;;;;;24.88;10.73;;;;;;;18.66;85.75;96487.31;4963059;28;20059;-68
2021/09/18 00:12:35;;;;;;;24.67;10.07;;;;;;;18.79;85.22;96496.63;4961661;28;20450;-68
2021/09/18 00:15:03;;;;;;;21.35;9.35;;;;;;;18.82;84.37;96484.53;4960989;28;20439;-68
2021/09/18 00:17:30;;;;;;;25.98;9.00;;;;;;;18.81;84.90;96488.53;4962845;28;20066;-68
2021/09/18 00:19:58;;;;;;;23.90;9.63;;;;;;;18.44;84.34;96423.72;4962669;28;20300;-68
2021/09/18 00:22:25;;;;;;;22.08;9.88;;;;;;;18.96;83.76;96484.19;4962756;28;20059;-68
2021/09/18 00:24:52;;;;;;;19.20;8.27;;;;;;;19.12;83.18;96498.22;4963254;28;20047;-67
2021/09/18 00:27:19;;;;;;;19.40;8.35;;;;;;;19.13;82.54;96482.94;4961510;28;20055;-67
2021/09/18 00:29:45;;;;;;;18.48;8.18;;;;;;;19.19;83.22;96506.44;4963026;28;20063;-67
2021/09/18 00:32:12;;;;;;;23.02;9.18;;;;;;;19.05;82.64;96481.53;4962722;28;20058;-67
2021/09/18 00:34:39;;;;;;;20.60;8.50;;;;;;;19.38;82.60;96516.81;4962337;28;20058;-68
2021/09/18 00:37:06;;;;;;;26.67;10.25;;;;;;;19.46;82.01;96515.41;4966776;28;20057;-67
2021/09/18 00:39:32;;;;;;;26.45;9.40;;;;;;;19.48;81.99;96521.38;4980737;28;20056;-68
2021/09/18 00:41:59;;;;;;;24.83;9.23;;;;;;;19.51;82.18;96534.53;4982137;28;20055;-68
2021/09/18 00:44:28;;;;;;;22.67;9.00;;;;;;;19.17;82.28;96469.59;4980664;28;20065;-68
2021/09/18 00:46:55;;;;;;;20.75;8.02;;;;;;;19.31;84.42;96528.25;4980446;28;20061;-67
2021/09/18 00:49:22;;;;;;;19.02;8.93;;;;;;;19.44;83.50;96523.47;4980988;28;20062;-68
2021/09/18 00:51:49;;;;;;;21.17;8.77;;;;;;;19.47;83.25;96513.41;4981952;28;20054;-68
2021/09/18 00:54:16;;;;;;;21.45;8.73;;;;;;;18.89;83.44;96416.22;4982140;28;20050;-69
2021/09/18 00:56:43;;;;;;;26.38;9.30;;;;;;;19.58;83.60;96527.16;4982197;28;20156;-68
2021/09/18 00:59:10;;;;;;;30.20;9.00;;;;;;;19.49;84.01;96519.34;4980780;28;20057;-68
2021/09/18 01:01:37;;;;;;;26.92;9.07;;;;;;;19.58;83.88;96515.91;4982148;28;20100;-68
2021/09/18 01:04:04;;;;;;;20.05;9.48;;;;;;;19.68;83.39;96523.28;4980261;28;20086;-68
2021/09/18 01:06:32;;;;;;;22.45;9.30;;;;;;;19.46;82.90;96472.47;4981565;28;20165;-68
2021/09/18 01:08:59;;;;;;;24.15;9.60;;;;;;;19.40;82.79;96452.56;4981362;28;20054;-68
2021/09/18 01:11:26;;;;;;;20.65;9.93;;;;;;;19.62;82.78;96506.16;4981594;28;20131;-67
2021/09/18 01:13:54;;;;;;;20.75;10.18;;;;;;;19.31;82.65;96474.88;4981513;28;20060;-68
2021/09/18 01:16:21;;;;;;;25.15;10.90;;;;;;;18.91;82.70;96422.94;4980125;28;20053;-67
2021/09/18 01:18:48;;;;;;;22.48;10.60;;;;;;;18.99;83.00;96460.84;4981795;28;20064;-68
2021/09/18 01:21:16;;;;;;;28.75;10.77;;;;;;;19.17;82.96;96478.00;4981380;28;20149;-68
2021/09/18 01:23:43;;;;;;;20.58;10.25;;;;;;;19.45;81.74;96499.78;4981265;28;20137;-68
2021/09/18 01:26:11;;;;;;;18.85;10.15;;;;;;;19.37;82.55;96495.59;4980000;28;20529;-68
2021/09/18 01:28:39;;;;;;;19.75;9.40;;;;;;;19.13;82.54;96454.84;4980952;28;20107;-68
2021/09/18 01:31:07;;;;;;;17.42;10.30;;;;;;;19.32;83.29;96490.50;4981183;28;20068;-69
2021/09/18 01:33:35;;;;;;;19.30;10.15;;;;;;;19.28;82.96;96489.78;4981084;28;20532;-68
2021/09/18 01:36:02;;;;;;;26.05;10.50;;;;;;;19.28;83.32;96492.59;4981428;28;20061;-68
2021/09/18 01:38:28;;;;;;;21.52;9.95;;;;;;;19.22;83.65;96491.53;4964446;28;20146;-68
2021/09/18 01:40:55;;;;;;;21.08;10.48;;;;;;;18.83;84.63;96451.63;4960362;28;20133;-68
2021/09/18 01:43:23;;;;;;;25.88;10.95;;;;;;;18.52;85.08;96403.50;4961965;28;20137;-68
2021/09/18 01:45:50;;;;;;;22.92;10.02;;;;;;;19.11;84.71;96485.38;4961808;28;20128;-68
2021/09/18 01:48:17;;;;;;;18.48;9.48;;;;;;;19.05;83.86;96442.22;4961758;28;20108;-67
2021/09/18 01:50:47;;;;;;;22.90;9.30;;;;;;;19.24;84.27;96477.84;4960444;28;20129;-67
2021/09/18 01:53:17;;;;;;;22.38;8.95;;;;;;;18.99;83.77;96410.31;4961819;28;20054;-67
2021/09/18 01:55:45;;;;;;;20.63;9.75;;;;;;;19.38;83.68;96471.06;4961822;28;20709;-67
2021/09/18 01:58:13;;;;;;;21.02;10.18;;;;;;;19.04;83.74;96440.66;4960537;28;20058;-67
2021/09/18 02:00:48;;;;;;;20.98;9.30;;;;;;;18.85;84.02;96419.09;4962852;28;20866;-67
2021/09/18 02:03:15;;;;;;;26.08;11.30;;;;;;;18.96;83.61;96433.66;4965149;28;20121;-67
2021/09/18 02:05:42;;;;;;;27.85;10.20;;;;;;;19.18;83.47;96473.19;4965002;28;20054;-67
2021/09/18 02:08:09;;;;;;;19.35;9.50;;;;;;;18.98;84.07;96478.91;4962984;28;20576;-67
2021/09/18 02:10:37;;;;;;;27.52;10.48;;;;;;;18.95;83.85;96474.16;4964835;28;20057;-68
2021/09/18 02:13:08;;;;;;;20.05;9.43;;;;;;;18.65;83.63;96429.59;4964442;28;20054;-67
2021/09/18 02:15:35;;;;;;;20.58;9.77;;;;;;;18.97;83.86;96476.53;4965275;28;20055;-67
2021/09/18 02:18:06;;;;;;;28.23;10.10;;;;;;;19.02;84.03;96482.41;4963256;28;20544;-67
2021/09/18 02:20:34;;;;;;;17.95;10.05;;;;;;;19.11;83.09;96474.16;4965385;28;20070;-68
2021/09/18 02:23:03;;;;;;;14.98;8.98;;;;;;;18.92;83.15;96430.13;4964519;28;20137;-68
2021/09/18 02:25:30;;;;;;;19.38;9.60;;;;;;;18.53;83.85;96393.84;4964637;28;20141;-68
2021/09/18 02:27:57;;;;;;;22.55;9.23;;;;;;;19.12;83.83;96480.56;4962806;28;20505;-68
2021/09/18 02:30:28;;;;;;;23.08;9.82;;;;;;;19.12;84.26;96486.97;4964664;28;20581;-67
2021/09/18 02:32:56;;;;;;;23.02;9.98;;;;;;;19.14;83.58;96490.13;4963218;28;20069;-68
2021/09/18 02:35:26;;;;;;;18.20;9.50;;;;;;;19.24;83.34;96483.44;4964098;28;20061;-68
2021/09/18 02:37:57;;;;;;;23.80;9.95;;;;;;;19.18;83.56;96482.41;4973359;28;20065;-68
2021/09/18 02:40:25;;;;;;;24.17;10.57;;;;;;;19.04;83.71;96440.66;4982934;28;20151;-68
2021/09/18 02:42:54;;;;;;;22.25;10.32;;;;;;;19.30;83.23;96464.88;4982318;28;20054;-67
2021/09/18 02:45:22;;;;;;;27.13;10.70;;;;;;;19.43;83.30;96481.78;4983890;28;20057;-68
2021/09/18 02:47:49;;;;;;;17.75;10.07;;;;;;;19.32;84.69;96476.47;4982072;28;20104;-68
2021/09/18 02:50:18;;;;;;;24.83;10.82;;;;;;;19.29;84.65;96473.72;4983476;28;20058;-68
2021/09/18 02:52:45;;;;;;;23.23;9.25;;;;;;;19.25;84.23;96473.78;4983462;28;20500;-67
2021/09/18 02:55:13;;;;;;;23.17;8.90;;;;;;;19.19;84.76;96486.78;4984017;28;20137;-68
2021/09/18 02:57:41;;;;;;;24.95;9.98;;;;;;;18.67;85.80;96441.19;4983704;28;20463;-68
2021/09/18 03:00:09;;;;;;;22.75;8.82;;;;;;;19.01;85.26;96486.47;4982316;28;20058;-67
2021/09/18 03:02:36;;;;;;;20.52;9.75;;;;;;;19.08;84.31;96491.09;4982261;28;20053;-68
2021/09/18 03:05:05;;;;;;;21.60;8.70;;;;;;;19.02;84.88;96487.22;4983565;28;20054;-67
2021/09/18 03:07:32;;;;;;;18.65;8.85;;;;;;;18.80;84.57;96463.72;4981644;28;20580;-68
2021/09/18 03:09:59;;;;;;;21.20;8.93;;;;;;;18.72;84.37;96434.25;4982857;28;20528;-67
2021/09/18 03:12:26;;;;;;;21.35;8.32;;;;;;;19.07;84.32;96483.91;4982698;28;20058;-68
2021/09/18 03:14:53;;;;;;;21.60;9.20;;;;;;;18.94;85.54;96497.84;4983776;28;20539;-68
2021/09/18 03:17:19;;;;;;;20.27;8.52;;;;;;;18.72;86.49;96474.34;4983352;28;20097;-67
2021/09/18 03:19:46;;;;;;;18.90;8.55;;;;;;;18.91;86.14;96493.13;4981943;28;20050;-67
2021/09/18 03:22:13;;;;;;;19.38;9.70;;;;;;;18.83;86.70;96488.91;4983146;28;20051;-68
2021/09/18 03:24:40;;;;;;;18.52;7.68;;;;;;;18.98;85.61;96487.34;4983010;28;20050;-68
2021/09/18 03:27:07;;;;;;;20.20;7.95;;;;;;;18.76;84.68;96452.56;4982902;28;20420;-68
2021/09/18 03:29:34;;;;;;;22.00;8.75;;;;;;;18.21;84.81;96357.31;4981489;28;20143;-68
2021/09/18 03:32:01;;;;;;;21.33;8.52;;;;;;;19.00;86.88;96490.47;4982950;28;20065;-67
2021/09/18 03:34:27;;;;;;;19.70;8.48;;;;;;;18.20;87.17;96361.38;4981749;28;20058;-67
2021/09/18 03:36:54;;;;;;;25.52;9.32;;;;;;;18.72;89.32;96474.34;4981370;28;20054;-67
2021/09/18 03:39:21;;;;;;;20.73;9.05;;;;;;;18.82;89.52;96484.53;4963289;28;20137;-67
2021/09/18 03:41:48;;;;;;;23.48;9.73;;;;;;;18.45;89.95;96419.69;4961838;28;20636;-68
2021/09/18 03:44:15;;;;;;;18.85;8.88;;;;;;;18.59;90.87;96442.56;4961901;28;20074;-67
2021/09/18 03:46:41;;;;;;;18.80;9.63;;;;;;;18.70;92.06;96471.16;4963191;28;20058;-66
2021/09/18 03:49:08;;;;;;;25.90;9.85;;;;;;;18.63;92.98;96465.75;4962832;28;20069;-67
2021/09/18 03:51:35;;;;;;;27.05;10.35;;;;;;;18.39;94.12;96421.44;4962936;28;20148;-67
2021/09/18 03:54:02;;;;;;;19.98;9.65;;;;;;;15.90;93.35;96011.41;4963638;28;20605;-67
2021/09/18 03:56:28;;;;;;;23.35;9.30;;;;;;;18.62;92.77;96436.09;4963026;28;20613;-67
2021/09/18 03:58:55;;;;;;;21.02;10.13;;;;;;;18.58;93.52;96443.81;4962688;28;20065;-67
2021/09/18 04:01:22;;;;;;;19.67;9.82;;;;;;;18.14;93.30;96371.53;4961408;28;20190;-69
2021/09/18 04:03:49;;;;;;;19.80;9.75;;;;;;;17.91;95.20;96374.44;4962788;28;20137;-67
2021/09/18 04:06:16;;;;;;;19.08;9.52;;;;;;;18.20;94.47;96409.03;4962961;28;20146;-68
2021/09/18 04:08:44;;;;;;;22.63;9.20;;;;;;;18.53;93.82;96444.34;4962506;28;20063;-67
2021/09/18 04:11:11;;;;;;;24.42;10.07;;;;;;;17.91;96.90;96419.28;4961857;28;20495;-67
2021/09/18 04:13:38;;;;;;;21.60;10.80;;;;;;;17.69;100.00;96426.56;4962077;28;20057;-67
2021/09/18 04:16:05;;;;;;;21.08;10.30;;;;;;;17.19;100.00;96389.53;4963473;28;20537;-67
2021/09/18 04:18:32;;;;;;;41.35;13.25;;;;;;;17.64;100.00;96444.66;4962921;28;20153;-67
2021/09/18 04:20:58;;;;;;;33.08;13.10;;;;;;;17.34;100.00;96407.66;4962554;28;20585;-68
2021/09/18 04:23:25;;;;;;;42.17;14.55;;;;;;;17.57;100.00;96421.59;4961634;28;20065;-66
2021/09/18 04:25:52;;;;;;;31.67;12.00;;;;;;;17.95;100.00;96454.44;4962905;28;20154;-67
2021/09/18 04:28:19;;;;;;;24.65;11.32;;;;;;;17.20;100.00;96304.38;4962626;28;20063;-67
2021/09/18 04:30:45;;;;;;;23.67;10.45;;;;;;;18.29;99.09;96444.88;4962389;28;20062;-67
2021/09/18 04:33:12;;;;;;;24.20;11.85;;;;;;;18.45;98.20;96453.34;4963008;28;20061;-67
2021/09/18 04:35:40;;;;;;;24.50;11.02;;;;;;;18.64;96.16;96444.88;4962789;28;20142;-67
2021/09/18 04:38:07;;;;;;;20.80;11.63;;;;;;;18.78;94.36;96450.13;4972317;28;20085;-67
2021/09/18 04:40:34;;;;;;;21.70;10.05;;;;;;;18.80;93.97;96452.50;4980347;28;20576;-67
2021/09/18 04:43:00;;;;;;;27.70;11.50;;;;;;;18.97;93.18;96451.25;4980425;28;20058;-68
2021/09/18 04:45:28;;;;;;;27.05;11.25;;;;;;;19.14;90.99;96459.22;4980428;28;20432;-68
2021/09/18 04:47:55;;;;;;;25.75;11.27;;;;;;;18.89;90.90;96405.75;4981903;28;20960;-67
2021/09/18 04:50:22;;;;;;;27.73;11.52;;;;;;;19.15;90.11;96429.94;4980126;28;20145;-67
2021/09/18 04:52:49;;;;;;;26.25;12.13;;;;;;;19.29;90.68;96468.91;4981922;28;20085;-67
2021/09/18 04:55:15;;;;;;;22.40;11.15;;;;;;;19.23;90.73;96464.22;4980636;28;20051;-67
2021/09/18 04:57:42;;;;;;;25.45;11.80;;;;;;;19.41;90.02;96462.56;4960790;28;20517;-67
2021/09/18 05:00:10;;;;;;;29.25;12.45;;;;;;;19.57;89.09;96472.19;4941328;29;20573;-68
2021/09/18 05:02:36;;;;;;;24.52;10.40;;;;;;;19.74;88.06;96470.91;4941750;29;20624;-69
2021/09/18 05:05:06;;;;;;;21.33;10.43;;;;;;;19.60;87.53;96426.34;4943247;28;20059;-68
2021/09/18 05:07:32;;;;;;;27.20;11.00;;;;;;;20.02;86.74;96465.28;4942678;28;20586;-69
2021/09/18 05:09:59;;;;;;;23.95;10.18;;;;;;;19.85;84.19;96387.06;4941127;29;20574;-69
2021/09/18 05:12:26;;;;;;;22.80;10.27;;;;;;;19.92;83.58;96393.25;4941365;29;20087;-70
2021/09/18 05:14:53;;;;;;;26.83;10.32;;;;;;;20.15;83.00;96411.91;4942200;29;20051;-68
2021/09/18 05:17:20;;;;;;;24.33;10.18;;;;;;;19.96;82.48;96363.03;4942991;28;20057;-69
2021/09/18 05:19:47;;;;;;;22.65;10.35;;;;;;;20.79;82.18;96457.28;4941578;29;20641;-69
2021/09/18 05:22:13;;;;;;;24.13;10.02;;;;;;;20.99;81.14;96454.25;5041861;28;20461;-67
2021/09/18 05:24:40;;;;;;;29.05;9.75;;;;;;;21.23;79.48;96441.34;4942927;28;20077;-70
2021/09/18 05:27:07;;;;;;;22.95;10.68;;;;;;;21.31;78.81;96459.56;4941428;28;20078;-68
2021/09/18 05:29:34;;;;;;;25.60;11.02;;;;;;;21.56;77.38;96470.78;4941039;29;20071;-68
2021/09/18 05:32:01;;;;;;;24.13;10.25;;;;;;;21.69;76.83;96446.16;4941288;28;20077;-69
2021/09/18 05:34:28;;;;;;;22.90;10.63;;;;;;;21.63;76.29;96445.16;4941815;28;20160;-69
2021/09/18 05:36:54;;;;;;;28.38;11.10;;;;;;;21.81;75.96;96442.53;4944817;28;20157;-69
2021/09/18 05:39:21;;;;;;;23.70;11.40;;;;;;;21.85;74.90;96437.53;4984710;28;20421;-69
2021/09/18 05:41:48;;;;;;;33.28;12.27;;;;;;;21.77;74.58;96419.31;4984514;28;20058;-69
2021/09/18 05:44:15;;;;;;;27.50;12.68;;;;;;;21.91;74.39;96446.97;4984561;28;20058;-68
2021/09/18 05:46:42;;;;;;;26.40;11.77;;;;;;;20.16;74.19;96165.97;4961954;28;20724;-62
2021/09/18 05:49:09;;;;;;;29.20;13.13;;;;;;;22.17;73.78;96462.53;4961880;28;20612;-61
2021/09/18 05:51:36;;;;;;;33.30;12.02;;;;;;;21.83;73.04;96394.91;4964688;28;20050;-62
2021/09/18 05:54:03;;;;;;;33.88;10.40;;;;;;;22.54;72.56;96483.28;4963114;28;20138;-65
2021/09/18 05:56:29;;;;;;;24.00;10.15;;;;;;;22.73;71.75;96484.97;4965096;28;20516;-67
2021/09/18 05:59:00;;;;;;;31.90;10.05;;;;;;;22.82;71.06;96487.06;4947165;28;20059;-63
2021/09/18 06:01:27;;;;;;;28.42;9.68;;;;;;;22.92;70.09;96480.19;4964328;28;20050;-65
2021/09/18 06:03:54;;;;;;;24.38;9.77;;;;;;;23.18;69.17;96481.53;4964509;28;20050;-66
2021/09/18 06:06:21;;;;;;;23.13;9.50;;;;;;;21.52;67.65;96205.19;4948715;28;20055;-69
2021/09/18 06:08:47;;;;;;;30.60;8.93;;;;;;;22.86;68.17;96414.28;4946799;28;20097;-63
2021/09/18 06:11:14;;;;;;;20.45;8.05;;;;;;;23.25;69.26;96481.25;4945115;28;20142;-65
2021/09/18 06:13:42;;;;;;;22.35;7.78;;;;;;;23.03;69.88;96446.66;4951197;28;20415;-63
2021/09/18 06:16:12;;;;;;;19.40;8.00;;;;;;;23.34;69.68;96469.97;4947876;28;20462;-68
2021/09/18 06:18:40;;;;;;;20.90;8.90;;;;;;;23.33;68.12;96465.59;4946967;28;20064;-61
2021/09/18 06:21:08;;;;;;;29.35;8.73;;;;;;;21.96;67.45;96285.63;4946019;28;20101;-67
2021/09/18 06:23:37;;;;;;;27.52;8.82;;;;;;;23.41;68.92;96483.81;4950829;28;20158;-65
2021/09/18 06:26:04;;;;;;;25.15;9.23;;;;;;;22.87;68.75;96404.53;4952525;28;20070;-68
2021/09/18 06:28:34;;;;;;;21.50;9.80;;;;;;;23.26;68.51;96471.53;4984032;28;20057;-65
2021/09/18 06:31:01;;;;;;;30.60;9.82;;;;;;;23.43;68.33;96475.66;4954314;28;20055;-63
2021/09/18 06:33:28;;;;;;;24.17;9.07;;;;;;;23.52;67.89;96478.50;4960042;28;20076;-64
2021/09/18 06:35:56;;;;;;;40.10;10.10;;;;;;;23.50;67.19;96469.69;5019852;28;20055;-66
2021/09/18 06:38:22;;;;;;;35.47;9.55;;;;;;;23.41;66.93;96415.97;4993238;28;20130;-67
2021/09/18 06:40:51;;;;;;;36.03;10.05;;;;;;;23.69;68.12;96472.09;5065244;28;20160;-64
2021/09/18 06:43:19;;;;;;;32.03;9.40;;;;;;;23.57;67.28;96441.91;4971044;28;20153;-66
2021/09/18 06:45:47;;;;;;;30.95;9.65;;;;;;;23.68;66.46;96492.31;4949155;28;20055;-67
2021/09/18 06:48:14;;;;;;;34.42;10.52;;;;;;;23.04;65.36;96405.81;4956096;28;20057;-66
2021/09/18 06:50:41;;;;;;;31.05;9.25;;;;;;;23.63;65.51;96456.22;4951210;28;20599;-64
2021/09/18 06:53:09;;;;;;;33.97;11.00;;;;;;;23.76;65.66;96460.44;4960134;28;20050;-68
2021/09/18 06:55:36;;;;;;;34.70;11.20;;;;;;;23.88;65.96;96464.38;4959730;28;20155;-69
2021/09/18 06:58:03;;;;;;;27.88;9.45;;;;;;;24.22;65.34;96497.22;4959594;28;20078;-63
2021/09/18 07:00:30;;;;;;;29.33;9.02;;;;;;;23.16;65.19;96352.00;4944857;28;20498;-66
2021/09/18 07:02:58;;;;;;;27.70;10.48;;;;;;;23.35;65.77;96389.56;4946134;28;20051;-67
2021/09/18 07:05:25;;;;;;;28.45;9.60;;;;;;;23.40;65.54;96409.53;4960953;28;20658;-64
2021/09/18 07:07:52;;;;;;;25.80;9.18;;;;;;;23.37;65.65;96449.25;4945638;28;20059;-66
2021/09/18 07:10:19;;;;;;;35.03;10.43;;;;;;;23.67;69.33;96547.34;4943103;28;20062;-62
2021/09/18 07:12:45;;;;;;;24.70;9.25;;;;;;;22.75;74.92;96540.97;4943348;28;20159;-66
2021/09/18 07:15:12;;;;;;;21.52;8.68;;;;;;;22.10;82.00;96546.63;4943511;28;20133;-68
2021/09/18 07:17:39;;;;;;;20.38;9.10;;;;;;;21.52;88.24;96548.25;4958708;28;20054;-67
2021/09/18 07:20:08;;;;;;;24.52;7.65;;;;;;;20.90;89.05;96547.03;4944232;28;20062;-67
2021/09/18 07:22:34;;;;;;;18.58;7.90;;;;;;;19.76;93.47;96415.06;4941899;28;20051;-63
2021/09/18 07:25:01;;;;;;;21.25;7.32;;;;;;;20.30;95.80;96525.53;4941979;28;20058;-60
2021/09/18 07:27:28;;;;;;;18.70;6.50;;;;;;;20.31;98.68;96513.06;4960260;28;20138;-70
2021/09/18 07:29:57;;;;;;;13.57;6.93;;;;;;;20.19;100.00;96474.44;4961522;28;20054;-68
2021/09/18 07:32:24;;;;;;;16.98;6.70;;;;;;;19.99;100.00;96431.63;4957096;28;20134;-67
2021/09/18 07:34:51;;;;;;;19.55;6.93;;;;;;;20.05;100.00;96449.53;4951498;28;20043;-71
2021/09/18 07:37:18;;;;;;;23.25;8.43;;;;;;;20.32;100.00;96520.25;4944144;28;20055;-72
2021/09/18 07:39:45;;;;;;;22.17;9.43;;;;;;;20.71;100.00;96517.06;4950849;28;20520;-70
2021/09/18 07:42:18;;;;;;;27.60;10.00;;;;;;;21.18;100.00;96495.47;4958906;28;20065;-68
2021/09/18 07:44:45;;;;;;;;;;;;;;;21.52;100.00;96492.66;4947849;28;20091;-70
2021/09/18 07:47:12;;;;;;;21.83;8.15;;;;;;;21.41;98.03;96432.28;4942500;28;19926;-74
2021/09/18 07:49:39;;;;;;;23.75;7.70;;;;;;;21.49;93.38;96403.41;4955819;28;20082;-67
2021/09/18 07:52:06;;;;;;;19.40;7.00;;;;;;;22.35;91.99;96495.72;4953819;28;20053;-70
2021/09/18 07:54:33;;;;;;;20.08;6.50;;;;;;;22.70;85.36;96502.06;4947447;28;20142;-63
2021/09/18 07:57:21;;;;;;;16.98;6.65;;;;;;;22.89;82.26;96493.19;4952252;28;20062;-74
2021/09/18 07:59:47;;;;;;;15.90;7.32;;;;;;;23.09;81.16;96521.06;4957683;28;20051;-70
2021/09/18 08:02:14;;;;;;;16.60;7.40;;;;;;;22.27;79.53;96328.69;4960384;28;20082;-67
2021/09/18 08:04:41;;;;;;;20.73;6.90;;;;;;;22.88;76.24;96375.03;4973001;28;20523;-66
2021/09/18 08:07:09;;;;;;;20.20;9.70;;;;;;;23.26;76.54;96398.03;4955118;28;20059;-63
2021/09/18 08:09:35;;;;;;;20.83;8.75;;;;;;;24.11;77.74;96497.72;4941278;28;20526;-67
2021/09/18 08:12:03;;;;;;;25.05;8.00;;;;;;;23.67;77.01;96431.38;4942506;28;20063;-69
2021/09/18 08:14:30;;;;;;;15.02;7.72;;;;;;;23.52;77.21;96400.09;4946588;28;20043;-68
2021/09/18 08:16:56;;;;;;;17.55;6.90;;;;;;;24.36;76.12;96508.69;4950472;28;20532;-60
2021/09/18 08:19:24;;;;;;;14.40;6.53;;;;;;;24.27;71.71;96439.97;4942797;28;20529;-63
2021/09/18 08:21:50;;;;;;;18.30;6.53;;;;;;;24.65;71.01;96474.97;4942950;28;20407;-68
2021/09/18 08:24:17;;;;;;;18.17;5.93;;;;;;;24.74;70.64;96494.81;4955806;28;20133;-63
2021/09/18 08:26:44;;;;;;;16.92;6.55;;;;;;;24.89;67.96;96492.88;4943523;28;20822;-62
2021/09/18 08:29:11;;;;;;;18.60;6.45;;;;;;;25.23;66.76;96502.94;4941719;28;20120;-67
2021/09/18 08:31:38;;;;;;;25.77;9.23;;;;;;;25.38;66.96;96498.19;4964730;28;20151;-62
2021/09/18 08:34:05;;;;;;;15.32;6.10;;;;;;;25.71;65.36;96503.81;4959911;28;20576;-64
2021/09/18 08:36:32;;;;;;;13.88;6.15;;;;;;;25.59;62.04;96502.81;4957858;28;20155;-64
2021/09/18 08:38:59;;;;;;;12.32;6.15;;;;;;;25.09;62.30;96422.22;5058217;28;20053;-64
2021/09/18 08:41:26;;;;;;;14.15;6.28;;;;;;;25.38;63.17;96412.31;4983055;28;20039;-65
2021/09/18 08:43:53;;;;;;;17.08;6.70;;;;;;;25.91;62.56;96496.25;4952072;28;20138;-67
2021/09/18 08:46:19;;;;;;;16.70;6.57;;;;;;;25.55;62.50;96461.66;4946557;28;20042;-68
2021/09/18 08:48:47;;;;;;;17.25;7.50;;;;;;;25.06;63.22;96369.34;4957256;28;20058;-70
2021/09/18 08:51:14;;;;;;;11.43;5.47;;;;;;;25.64;63.86;96504.19;4961423;28;20058;-69
2021/09/18 08:53:41;;;;;;;14.40;6.57;;;;;;;25.89;64.82;96493.09;4961972;28;20161;-71
2021/09/18 08:56:08;;;;;;;15.05;6.13;;;;;;;25.95;61.43;96487.56;4961679;28;20054;-72
2021/09/18 08:58:35;;;;;;;15.73;5.05;;;;;;;25.71;61.63;96483.94;4961185;28;20062;-72
2021/09/18 09:01:03;;;;;;;12.60;5.68;;;;;;;24.99;59.71;96426.38;4961817;28;20082;-71
2021/09/18 09:03:34;;;;;;;11.55;5.57;;;;;;;25.52;60.23;96471.16;4961689;28;20791;-71
2021/09/18 09:06:12;;;;;;;9.60;5.60;;;;;;;25.58;58.89;96477.72;4962095;28;20158;-70
2021/09/18 09:08:42;;;;;;;9.07;4.57;;;;;;;25.64;56.98;96472.97;4962065;28;20062;-71
2021/09/18 09:11:19;;;;;;;7.97;4.30;;;;;;;25.27;57.70;96390.94;4961882;28;20058;-69
2021/09/18 09:14:03;;;;;;;8.57;4.55;;;;;;;26.02;55.85;96485.16;4960537;28;20051;-70
2021/09/18 09:16:34;;;;;;;9.20;4.82;;;;;;;26.01;55.82;96494.94;4961780;28;20059;-69
2021/09/18 09:19:18;;;;;;;8.55;4.57;;;;;;;26.04;55.60;96476.16;4960691;28;20057;-70
2021/09/18 09:21:53;;;;;;;7.78;4.70;;;;;;;24.97;53.88;96298.56;4962494;28;20418;-69
2021/09/18 09:24:22;;;;;;;10.98;5.22;;;;;;;26.03;55.18;96451.88;4977077;28;20062;-69
2021/09/18 09:27:09;;;;;;;8.50;5.18;;;;;;;26.24;56.09;96450.75;4963122;28;20166;-68
2021/09/18 09:29:51;;;;;;;11.77;5.03;;;;;;;24.81;53.71;96270.66;4960370;28;20055;-69
2021/09/18 09:32:38;;;;;;;10.00;4.25;;;;;;;26.37;52.06;96437.03;4961799;28;20059;-68
2021/09/18 09:35:13;;;;;;;12.50;4.55;;;;;;;26.30;52.80;96409.03;4976568;28;20057;-70
2021/09/18 09:37:51;;;;;;;10.32;4.82;;;;;;;26.42;52.79;96444.88;4975848;28;20605;-69
2021/09/18 09:40:33;;;;;;;8.00;4.43;;;;;;;26.34;53.63;96433.13;4943217;28;20061;-70
2021/09/18 09:43:01;;;;;;;11.75;4.85;;;;;;;26.62;51.84;96433.59;4942644;28;20459;-68
2021/09/18 09:45:28;;;;;;;11.63;5.03;;;;;;;26.53;52.15;96440.16;4941451;28;20134;-68
2021/09/18 09:48:02;;;;;;;7.93;4.70;;;;;;;26.50;53.80;96446.03;4849019;28;20057;-69
2021/09/18 09:50:30;;;;;;;11.15;5.10;;;;;;;26.84;53.05;96439.69;4942200;28;20059;-68
2021/09/18 09:52:58;;;;;;;8.02;5.05;;;;;;;26.86;50.87;96434.28;4942355;28;20134;-70
2021/09/18 09:55:33;;;;;;;13.63;4.85;;;;;;;27.22;51.71;96439.47;4942844;28;20051;-69
2021/09/18 09:58:04;;;;;;;9.45;4.68;;;;;;;27.44;51.39;96439.06;4942411;28;20055;-69
2021/09/18 10:00:39;;;;;;;10.48;4.60;;;;;;;26.89;50.44;96375.66;4942662;28;20052;-69
2021/09/18 10:03:07;;;;;;;9.80;5.82;;;;;;;27.31;50.46;96442.25;4943040;28;20051;-69
2021/09/18 10:05:35;;;;;;;12.85;5.70;;;;;;;27.25;50.05;96444.19;4942601;28;20113;-70
2021/09/18 10:08:03;;;;;;;12.45;6.93;;;;;;;27.08;51.23;96440.31;4942009;28;20522;-69
2021/09/18 10:10:32;;;;;;;15.02;8.85;;;;;;;27.14;51.13;96438.31;4942189;28;20051;-69
2021/09/18 10:13:00;;;;;;;17.20;7.97;;;;;;;26.57;50.55;96383.16;4940676;29;20445;-69
2021/09/18 10:15:28;;;;;;;13.98;5.85;;;;;;;26.21;54.39;96377.84;4940667;29;20055;-68
2021/09/18 10:18:00;;;;;;;16.30;5.65;;;;;;;25.81;54.65;96371.94;4940755;28;20063;-69
2021/09/18 10:25:49;;;;;;;15.98;6.07;;;;;;;26.00;55.56;96384.72;4945559;28;20051;-69
2021/09/18 10:28:39;;;;;;;17.03;6.47;;;;;;;26.10;55.92;96406.84;4944768;28;20062;-73
2021/09/18 10:31:17;;;;;;;13.18;5.50;;;;;;;26.04;53.12;96382.47;4945111;28;20326;-72
2021/09/18 10:33:48;;;;;;;16.80;5.53;;;;;;;26.18;53.54;96379.63;4945634;28;20062;-72
2021/09/18 10:36:27;;;;;;;8.50;4.90;;;;;;;26.39;54.24;96434.47;4944617;28;20134;-69
2021/09/18 10:39:08;;;;;;;10.52;5.10;;;;;;;26.24;54.16;96428.03;4952053;28;20441;-71
2021/09/18 10:41:51;;;;;;;10.80;4.45;;;;;;;26.18;53.91;96441.31;4962682;28;20444;-72
2021/09/18 10:44:21;;;;;;;12.57;4.82;;;;;;;26.28;52.73;96449.28;4963049;28;20051;-70
2021/09/18 10:46:53;;;;;;;11.40;5.75;;;;;;;26.22;52.90;96447.59;4964823;28;20066;-69
2021/09/18 10:49:33;;;;;;;11.30;5.82;;;;;;;26.25;52.49;96424.69;4964363;28;20459;-70
2021/09/18 10:52:18;;;;;;;16.48;5.90;;;;;;;26.60;54.95;96417.03;4964111;28;20051;-69
2021/09/18 10:55:05;;;;;;;11.45;4.43;;;;;;;26.98;51.61;96418.97;4962588;28;20047;-69
2021/09/18 10:57:38;;;;;;;14.70;5.60;;;;;;;27.51;49.65;96398.78;4963573;28;20155;-70
2021/09/18 11:00:12;;;;;;;10.27;4.75;;;;;;;27.75;48.43;96346.06;4962509;28;20060;-70
2021/09/18 11:02:41;;;;;;;9.38;4.53;;;;;;;28.24;47.83;96404.06;4962818;28;20086;-70
2021/09/18 11:05:31;;;;;;;12.38;4.80;;;;;;;28.17;47.43;96414.63;4962463;28;20575;-69
2021/09/18 11:08:00;;;;;;;11.55;4.95;;;;;;;27.95;49.10;96394.44;4948531;28;20066;-70
2021/09/18 11:10:27;;;;;;;8.13;4.60;;;;;;;28.06;47.94;96405.16;4962093;28;20134;-70
2021/09/18 11:13:05;;;;;;;5.05;4.18;;;;;;;27.99;48.33;96405.63;4963879;28;20058;-70
2021/09/18 11:15:43;;;;;;;11.48;4.70;;;;;;;28.06;47.96;96403.13;4963146;28;20556;-69
2021/09/18 11:18:14;;;;;;;10.82;4.88;;;;;;;27.81;48.00;96378.22;4963769;28;20090;-71
2021/09/18 11:20:42;;;;;;;11.40;4.75;;;;;;;27.88;48.24;96360.72;4962238;28;20528;-70
2021/09/18 11:23:09;;;;;;;11.90;4.95;;;;;;;28.25;46.91;96394.25;4963498;28;20047;-70
2021/09/18 11:25:45;;;;;;;10.43;4.53;;;;;;;28.26;45.96;96396.59;4962834;28;20051;-72
2021/09/18 11:28:14;;;;;;;8.18;4.63;;;;;;;27.77;46.58;96323.53;4962356;28;20577;-70
2021/09/18 11:30:52;;;;;;;10.20;4.68;;;;;;;28.41;46.27;96373.66;4961736;28;20527;-69
2021/09/18 11:33:24;;;;;;;8.98;4.72;;;;;;;28.15;46.07;96339.50;4962667;28;20058;-69
2021/09/18 11:35:59;;;;;;;9.48;5.00;;;;;;;28.29;47.37;96377.69;4963780;28;20063;-69